Time;durP1;ratioP1;P1;durP2;ratioP2;P2;SDS_P1;SDS_P2;PMS_P1;PMS_P2;Temp;Humidity;BMP_temperature;BMP_pressure;BME280_temperature;BME280_humidity;BME280_pressure;Samples;Min_cycle;Max_cycle;Signal;HPM_P1;HPM_P2
2021/04/16 00:01:37;;;;;;;5.47;5.07;;;30.30;94.20;;;;;;5068556;28;20282;-52
2021/04/16 00:04:08;;;;;;;6.43;5.82;;;30.30;94.40;;;;;;5069265;28;20205;-53
2021/04/16 00:06:42;;;;;;;6.55;6.03;;;30.40;94.60;;;;;;5068888;28;20225;-52
2021/04/16 00:09:12;;;;;;;6.80;6.20;;;30.40;94.70;;;;;;5064481;28;20197;-49
2021/04/16 00:11:42;;;;;;;6.47;5.88;;;30.50;94.80;;;;;;5068547;28;20224;-50
2021/04/16 00:14:14;;;;;;;7.07;6.28;;;30.60;94.90;;;;;;5068030;28;20194;-49
2021/04/16 00:16:44;;;;;;;6.90;6.20;;;30.60;95.00;;;;;;5064040;28;20628;-52
2021/04/16 00:19:16;;;;;;;6.32;5.78;;;30.70;95.10;;;;;;5066182;28;20245;-48
2021/04/16 00:21:47;;;;;;;6.57;6.05;;;30.80;95.20;;;;;;5063141;28;20201;-51
2021/04/16 00:24:18;;;;;;;6.07;5.47;;;30.80;95.20;;;;;;5063648;28;20197;-49
2021/04/16 00:26:48;;;;;;;8.05;6.55;;;30.90;95.20;;;;;;5064921;28;20657;-52
2021/04/16 00:29:19;;;;;;;7.32;6.72;;;31.00;95.20;;;;;;5060827;28;20700;-52
2021/04/16 00:31:52;;;;;;;7.38;6.72;;;31.00;95.10;;;;;;5066908;28;20190;-54
2021/04/16 00:34:23;;;;;;;6.65;6.15;;;31.10;95.10;;;;;;5066744;28;20200;-53
2021/04/16 00:36:54;;;;;;;8.02;7.32;;;31.20;95.00;;;;;;5068176;28;20266;-54
2021/04/16 00:39:25;;;;;;;7.60;6.93;;;31.30;95.00;;;;;;5067513;28;20239;-51
2021/04/16 00:41:56;;;;;;;7.55;6.85;;;31.40;94.90;;;;;;5066975;28;20459;-55
2021/04/16 00:44:26;;;;;;;7.40;6.70;;;31.40;94.80;;;;;;5068039;28;20212;-50
2021/04/16 00:46:59;;;;;;;7.70;7.10;;;31.50;94.70;;;;;;5067807;28;20205;-51
2021/04/16 00:49:31;;;;;;;7.60;7.00;;;31.60;94.60;;;;;;5068677;28;20286;-50
2021/04/16 00:52:03;;;;;;;7.90;7.22;;;31.70;94.60;;;;;;5067675;28;20216;-52
2021/04/16 00:54:35;;;;;;;8.02;7.40;;;31.70;94.80;;;;;;5005390;28;20997;-51
2021/04/16 00:57:06;;;;;;;8.38;7.57;;;31.80;94.40;;;;;;4947893;29;20701;-51
2021/04/16 00:59:37;;;;;;;8.30;7.50;;;31.90;94.40;;;;;;4943400;28;20210;-51
2021/04/16 01:02:07;;;;;;;8.98;8.15;;;32.00;94.30;;;;;;4889908;29;20324;-51
2021/04/16 01:04:38;;;;;;;7.90;7.18;;;32.00;93.90;;;;;;4891401;29;20211;-56
2021/04/16 01:07:10;;;;;;;8.93;8.07;;;32.10;93.80;;;;;;4893826;29;20217;-54
2021/04/16 01:09:41;;;;;;;8.15;7.45;;;32.20;93.40;;;;;;4892600;29;20704;-49
2021/04/16 01:12:12;;;;;;;7.28;6.68;;;32.20;93.10;;;;;;4905275;29;20301;-51
2021/04/16 01:14:44;;;;;;;7.32;6.72;;;32.30;93.30;;;;;;4906674;29;20489;-53
2021/04/16 01:17:15;;;;;;;7.10;6.50;;;32.30;93.20;;;;;;4907321;29;20683;-51
2021/04/16 01:19:48;;;;;;;7.72;7.10;;;32.40;93.10;;;;;;4907158;29;20228;-50
2021/04/16 01:22:22;;;;;;;7.47;6.80;;;32.50;93.00;;;;;;4906801;29;20227;-53
2021/04/16 01:24:55;;;;;;;7.28;6.68;;;32.50;92.40;;;;;;4903904;28;20209;-53
2021/04/16 01:27:26;;;;;;;6.65;6.13;;;32.60;92.20;;;;;;4969926;28;20313;-52
2021/04/16 01:29:56;;;;;;;6.47;5.97;;;32.70;92.20;;;;;;5014875;28;20200;-50
2021/04/16 01:32:27;;;;;;;7.68;6.90;;;32.80;92.10;;;;;;5020001;28;20218;-56
2021/04/16 01:34:57;;;;;;;6.97;6.45;;;32.80;91.40;;;;;;5068078;28;20198;-51
2021/04/16 01:37:28;;;;;;;7.18;6.60;;;32.80;91.60;;;;;;5068222;28;20661;-52
2021/04/16 01:39:59;;;;;;;7.35;6.75;;;32.90;91.60;;;;;;5068545;28;20587;-49
2021/04/16 01:42:30;;;;;;;7.05;6.35;;;33.00;91.20;;;;;;5067836;28;20292;-50
2021/04/16 01:45:00;;;;;;;7.60;6.90;;;33.10;91.10;;;;;;5068499;28;20202;-53
2021/04/16 01:47:30;;;;;;;7.30;6.70;;;33.10;90.60;;;;;;5068726;28;20658;-52
2021/04/16 01:50:01;;;;;;;8.05;7.25;;;33.20;90.60;;;;;;5068405;28;20261;-53
2021/04/16 01:52:34;;;;;;;7.63;7.03;;;33.20;89.50;;;;;;5067872;28;20255;-52
2021/04/16 01:55:09;;;;;;;7.47;6.65;;;33.20;89.00;;;;;;5067765;28;20669;-49
2021/04/16 01:57:39;;;;;;;7.03;6.43;;;33.30;88.50;;;;;;5066583;28;20224;-49
2021/04/16 02:00:11;;;;;;;6.90;6.30;;;33.30;89.00;;;;;;5070505;28;20228;-51
2021/04/16 02:02:42;;;;;;;7.68;6.95;;;33.40;88.50;;;;;;5071146;28;20201;-50
2021/04/16 02:05:13;;;;;;;7.45;6.72;;;33.30;87.70;;;;;;5071797;28;20229;-53
2021/04/16 02:07:43;;;;;;;6.20;5.70;;;33.30;88.10;;;;;;5071991;28;20205;-55
2021/04/16 02:10:15;;;;;;;7.72;7.13;;;33.40;88.60;;;;;;5067432;28;20209;-52
2021/04/16 02:12:48;;;;;;;6.60;6.03;;;33.40;86.60;;;;;;5071310;28;20240;-51
2021/04/16 02:15:21;;;;;;;6.35;5.85;;;33.40;87.40;;;;;;5070903;28;20208;-50
2021/04/16 02:17:52;;;;;;;6.05;5.55;;;33.40;87.60;;;;;;5071564;28;20201;-52
2021/04/16 02:20:23;;;;;;;5.95;5.35;;;33.50;87.80;;;;;;5071332;28;20205;-51
2021/04/16 02:22:54;;;;;;;6.18;5.68;;;33.60;88.20;;;;;;5070424;28;20201;-52
2021/04/16 02:25:25;;;;;;;6.53;6.03;;;33.60;87.40;;;;;;5070572;28;20197;-52
2021/04/16 02:27:56;;;;;;;6.70;6.10;;;33.60;87.40;;;;;;5071647;28;20233;-52
2021/04/16 02:30:30;;;;;;;7.22;6.63;;;33.70;87.10;;;;;;5071196;28;20202;-51
2021/04/16 02:33:00;;;;;;;6.60;6.10;;;33.80;85.50;;;;;;5071392;28;20196;-51
2021/04/16 02:35:31;;;;;;;6.60;6.00;;;33.80;85.60;;;;;;5070730;28;20300;-53
2021/04/16 02:38:02;;;;;;;6.35;5.85;;;33.90;85.80;;;;;;5070688;28;20201;-50
2021/04/16 02:40:34;;;;;;;9.50;8.48;;;33.90;85.80;;;;;;5069911;28;20283;-52
2021/04/16 02:43:04;;;;;;;6.90;6.30;;;34.00;85.70;;;;;;5069756;28;20710;-54
2021/04/16 02:45:35;;;;;;;6.53;6.03;;;34.00;86.10;;;;;;5070552;28;20205;-54
2021/04/16 02:48:06;;;;;;;6.25;5.75;;;34.10;86.30;;;;;;5070652;28;20262;-55
2021/04/16 02:50:36;;;;;;;5.95;5.45;;;34.20;85.80;;;;;;5070818;28;20237;-52
2021/04/16 02:53:07;;;;;;;6.05;5.45;;;34.30;85.40;;;;;;5070714;28;20216;-51
2021/04/16 02:55:38;;;;;;;6.40;5.80;;;34.30;85.30;;;;;;5070788;28;20883;-50
2021/04/16 02:58:09;;;;;;;5.72;5.22;;;34.40;84.90;;;;;;5070565;28;20205;-53
2021/04/16 03:00:39;;;;;;;6.70;6.10;;;34.50;84.20;;;;;;5008185;28;20901;-49
2021/04/16 03:03:10;;;;;;;6.20;5.70;;;34.50;82.70;;;;;;5006589;28;20714;-49
2021/04/16 03:05:40;;;;;;;5.97;5.50;;;34.60;79.10;;;;;;5007880;28;20214;-52
2021/04/16 03:08:11;;;;;;;5.93;5.43;;;34.60;80.30;;;;;;5007684;28;20211;-49
2021/04/16 03:10:42;;;;;;;5.85;5.40;;;34.60;80.00;;;;;;5007786;28;20722;-50
2021/04/16 03:13:13;;;;;;;5.40;4.93;;;34.70;80.50;;;;;;5008131;28;20314;-53
2021/04/16 03:15:44;;;;;;;5.45;5.00;;;34.70;81.50;;;;;;5009863;28;20211;-52
2021/04/16 03:18:17;;;;;;;6.32;5.55;;;34.80;81.40;;;;;;5007745;28;20208;-50
2021/04/16 03:20:48;;;;;;;5.70;4.95;;;34.90;80.90;;;;;;5007885;28;20324;-53
2021/04/16 03:23:18;;;;;;;5.15;4.75;;;35.00;81.40;;;;;;5007209;28;20204;-52
2021/04/16 03:25:50;;;;;;;5.32;4.90;;;35.00;81.00;;;;;;5055709;28;20676;-50
2021/04/16 03:28:21;;;;;;;5.68;5.18;;;35.10;81.00;;;;;;5070649;28;20207;-52
2021/04/16 03:30:52;;;;;;;5.60;5.13;;;35.20;79.20;;;;;;5070359;28;20200;-53
2021/04/16 03:33:22;;;;;;;5.82;5.32;;;35.30;76.80;;;;;;5069126;28;20204;-50
2021/04/16 03:35:53;;;;;;;6.95;5.18;;;35.30;78.20;;;;;;5069412;28;20232;-52
2021/04/16 03:38:24;;;;;;;5.35;4.90;;;35.40;78.90;;;;;;5070561;28;20200;-54
2021/04/16 03:40:57;;;;;;;5.15;4.75;;;35.50;79.10;;;;;;5070409;28;20229;-52
2021/04/16 03:43:28;;;;;;;5.75;5.18;;;35.60;79.10;;;;;;5069490;28;20213;-50
2021/04/16 03:46:01;;;;;;;5.72;5.28;;;35.60;78.50;;;;;;5070032;28;20225;-51
2021/04/16 03:48:31;;;;;;;5.72;5.22;;;35.70;78.10;;;;;;5069625;28;20259;-53
2021/04/16 03:51:02;;;;;;;6.32;5.78;;;35.70;78.30;;;;;;5069772;28;20284;-50
2021/04/16 03:53:32;;;;;;;6.47;5.88;;;35.70;77.00;;;;;;5068953;28;20233;-52
2021/04/16 03:56:13;;;;;;;6.85;6.35;;;35.70;75.50;;;;;;5069376;28;20588;-52
2021/04/16 03:58:44;;;;;;;6.15;5.65;;;35.70;73.90;;;;;;5069854;28;20722;-54
2021/04/16 04:01:16;;;;;;;6.40;5.85;;;35.70;75.80;;;;;;5069797;28;20197;-53
2021/04/16 04:03:46;;;;;;;6.07;5.60;;;35.70;74.70;;;;;;5069397;28;20202;-53
2021/04/16 04:06:17;;;;;;;6.65;6.05;;;35.70;75.70;;;;;;5069805;28;20208;-54
2021/04/16 04:08:47;;;;;;;5.88;5.10;;;35.60;74.70;;;;;;5069888;28;20198;-51
2021/04/16 04:11:19;;;;;;;5.60;5.10;;;35.60;75.50;;;;;;5069897;28;20206;-55
2021/04/16 04:13:49;;;;;;;5.45;5.05;;;35.60;75.80;;;;;;5069076;28;20683;-53
2021/04/16 04:16:20;;;;;;;5.88;4.90;;;35.60;77.40;;;;;;5068735;28;20213;-53
2021/04/16 04:18:50;;;;;;;5.20;4.80;;;35.70;77.10;;;;;;5069074;28;20250;-51
2021/04/16 04:21:21;;;;;;;5.70;5.20;;;35.70;76.50;;;;;;5068845;28;20250;-51
2021/04/16 04:23:56;;;;;;;6.22;5.70;;;35.80;75.00;;;;;;5067639;28;20223;-51
2021/04/16 04:26:28;;;;;;;5.65;5.25;;;35.80;74.60;;;;;;5069836;28;20280;-51
2021/04/16 04:28:58;;;;;;;6.00;5.50;;;35.80;74.90;;;;;;5068953;28;20703;-48
2021/04/16 04:31:28;;;;;;;6.43;5.90;;;35.80;75.10;;;;;;5068145;28;20304;-51
2021/04/16 04:33:59;;;;;;;6.20;5.70;;;35.80;75.20;;;;;;5069217;28;20285;-52
2021/04/16 04:36:29;;;;;;;6.40;5.80;;;35.80;74.60;;;;;;5069312;28;20766;-49
2021/04/16 04:39:03;;;;;;;5.90;5.40;;;35.80;74.30;;;;;;5069275;28;20204;-54
2021/04/16 04:41:35;;;;;;;6.00;5.50;;;35.80;74.20;;;;;;5069063;28;20205;-51
2021/04/16 04:44:06;;;;;;;6.75;6.07;;;35.80;74.80;;;;;;5068737;28;20237;-52
2021/04/16 04:46:36;;;;;;;6.45;5.85;;;35.70;74.70;;;;;;5069236;28;20682;-55
2021/04/16 04:49:07;;;;;;;7.35;6.50;;;35.70;75.10;;;;;;5067626;28;20612;-50
2021/04/16 04:51:40;;;;;;;7.13;6.43;;;35.70;75.90;;;;;;5068682;28;20209;-53
2021/04/16 04:54:10;;;;;;;7.13;6.00;;;35.60;76.30;;;;;;5068297;28;20205;-52
2021/04/16 04:56:42;;;;;;;6.88;6.25;;;35.60;77.40;;;;;;5069005;28;20228;-51
2021/04/16 04:59:12;;;;;;;7.50;6.05;;;35.60;77.30;;;;;;5069198;28;20197;-51
2021/04/16 05:01:42;;;;;;;7.18;6.47;;;35.50;77.60;;;;;;5069105;28;20196;-50
2021/04/16 05:04:13;;;;;;;7.63;6.88;;;35.40;79.10;;;;;;5067835;28;20655;-51
2021/04/16 05:06:43;;;;;;;11.55;8.68;;;35.40;79.40;;;;;;5068384;28;20205;-52
2021/04/16 05:09:14;;;;;;;8.45;7.65;;;35.30;80.50;;;;;;5068199;28;20216;-51
2021/04/16 05:11:45;;;;;;;7.00;6.22;;;35.30;80.10;;;;;;5063087;28;20680;-52
2021/04/16 05:14:16;;;;;;;6.65;6.05;;;35.20;79.20;;;;;;5067102;28;20680;-51
2021/04/16 05:16:46;;;;;;;7.47;6.68;;;35.20;79.20;;;;;;5069090;28;20225;-52
2021/04/16 05:19:16;;;;;;;6.72;6.13;;;35.20;78.40;;;;;;5068625;28;20276;-52
2021/04/16 05:21:47;;;;;;;7.40;6.30;;;35.10;77.70;;;;;;5067536;28;20755;-53
2021/04/16 05:24:18;;;;;;;7.20;6.60;;;35.10;76.70;;;;;;5067265;28;20277;-55
2021/04/16 05:26:49;;;;;;;7.28;6.68;;;35.00;76.40;;;;;;5067945;28;20715;-55
2021/04/16 05:29:19;;;;;;;7.00;6.40;;;34.90;76.20;;;;;;5068869;28;20197;-56
2021/04/16 05:31:50;;;;;;;5.80;5.30;;;34.80;77.40;;;;;;5068095;28;20205;-51
2021/04/16 05:34:20;;;;;;;5.88;5.35;;;34.60;75.60;;;;;;5070733;28;20201;-51
2021/04/16 05:36:51;;;;;;;5.68;5.18;;;34.50;75.70;;;;;;5071466;28;20232;-51
2021/04/16 05:39:21;;;;;;;6.13;5.60;;;34.30;72.90;;;;;;5073067;28;20308;-53
2021/04/16 05:41:52;;;;;;;6.65;4.80;;;34.10;73.80;;;;;;5072914;28;20293;-53
2021/04/16 05:44:23;;;;;;;4.15;3.85;;;34.00;73.50;;;;;;5072591;28;20887;-51
2021/04/16 05:46:53;;;;;;;4.20;3.80;;;33.90;73.00;;;;;;5069984;28;20542;-54
2021/04/16 05:49:25;;;;;;;3.70;3.47;;;33.80;72.50;;;;;;5072397;28;20248;-55
2021/04/16 05:51:56;;;;;;;3.53;3.22;;;33.80;72.60;;;;;;5072245;28;20679;-51
2021/04/16 05:54:26;;;;;;;3.50;3.25;;;33.80;72.30;;;;;;5072300;28;20685;-50
2021/04/16 05:56:58;;;;;;;4.00;3.70;;;33.70;73.20;;;;;;5067659;28;20259;-51
2021/04/16 05:59:28;;;;;;;7.38;6.68;;;33.80;73.70;;;;;;5072198;28;20399;-51
2021/04/16 06:01:58;;;;;;;6.18;5.57;;;33.80;74.70;;;;;;5072346;28;20548;-52
2021/04/16 06:04:28;;;;;;;6.90;5.88;;;33.80;76.00;;;;;;5072618;28;20216;-51
2021/04/16 06:07:19;;;;;;;6.63;6.03;;;33.80;77.70;;;;;;5006217;28;20579;-55
2021/04/16 06:09:50;;;;;;;5.97;5.47;;;34.00;78.80;;;;;;5009690;28;20234;-51
2021/04/16 06:12:21;;;;;;;6.40;5.80;;;34.00;79.20;;;;;;5010034;28;20270;-52
2021/04/16 06:14:51;;;;;;;5.78;5.28;;;34.10;80.20;;;;;;5009745;28;20214;-53
2021/04/16 06:17:22;;;;;;;6.28;5.05;;;34.20;80.50;;;;;;5010152;28;20212;-55
2021/04/16 06:22:34;;;;;;;5.70;5.22;;;34.40;80.30;;;;;;5143002;23;20544;-53
2021/04/16 06:25:07;;;;;;;5.70;5.30;;;34.50;79.60;;;;;;4964187;28;21099;-55
2021/04/16 06:27:39;;;;;;;6.47;5.85;;;34.50;79.20;;;;;;4961644;28;20239;-54
2021/04/16 06:30:10;;;;;;;6.35;5.78;;;34.60;79.30;;;;;;4963907;28;20859;-51
2021/04/16 06:32:41;;;;;;;5.38;4.40;;;34.60;77.20;;;;;;4960829;28;20201;-51
2021/04/16 06:35:13;;;;;;;6.68;4.50;;;34.60;73.80;;;;;;4961925;28;20229;-51
2021/04/16 06:37:45;;;;;;;4.82;4.28;;;34.50;72.60;;;;;;4971314;28;20213;-49
2021/04/16 06:40:15;;;;;;;4.47;4.07;;;34.40;71.90;;;;;;4974192;28;20212;-49
2021/04/16 06:42:49;;;;;;;4.18;3.80;;;34.30;72.60;;;;;;4973299;28;20300;-52
2021/04/16 06:45:20;;;;;;;4.70;3.83;;;34.10;71.50;;;;;;4961442;28;20214;-53
2021/04/16 06:47:54;;;;;;;5.32;4.30;;;34.00;71.40;;;;;;4955105;28;20638;-50
2021/04/16 06:50:26;;;;;;;4.70;3.95;;;33.80;71.10;;;;;;4951481;28;20554;-49
2021/04/16 06:53:00;;;;;;;5.18;4.20;;;33.50;71.70;;;;;;4895946;29;20207;-52
2021/04/16 06:55:32;;;;;;;4.82;3.97;;;33.40;72.40;;;;;;4839852;29;20225;-52
2021/04/16 06:58:05;;;;;;;7.40;4.32;;;33.20;73.00;;;;;;4813072;29;20379;-50
2021/04/16 07:00:42;;;;;;;5.40;4.57;;;33.10;73.90;;;;;;4805760;29;20214;-51
2021/04/16 07:03:16;;;;;;;5.40;4.97;;;32.90;75.00;;;;;;4803308;29;20242;-50
2021/04/16 07:05:50;;;;;;;5.45;4.80;;;32.90;75.80;;;;;;4804479;29;20210;-51
2021/04/16 07:08:26;;;;;;;5.15;4.15;;;32.70;76.10;;;;;;4808763;29;20306;-52
2021/04/16 07:10:57;;;;;;;4.75;4.35;;;32.60;76.50;;;;;;4789150;29;20652;-51
2021/04/16 07:13:33;;;;;;;5.40;4.90;;;32.50;76.80;;;;;;4794700;29;20215;-55
2021/04/16 07:16:04;;;;;;;5.13;4.63;;;32.40;76.20;;;;;;4784224;29;20286;-51
2021/04/16 07:18:36;;;;;;;4.18;3.83;;;32.30;76.20;;;;;;4785411;29;20244;-54
2021/04/16 07:21:08;;;;;;;3.90;3.60;;;32.20;76.70;;;;;;4798052;29;20310;-51
2021/04/16 07:23:46;;;;;;;4.40;4.00;;;32.10;77.00;;;;;;4797012;29;20325;-53
2021/04/16 07:26:40;;;;;;;3.78;3.45;;;32.00;77.40;;;;;;4839435;29;20206;-53
2021/04/16 07:29:17;;;;;;;3.20;3.00;;;32.00;76.50;;;;;;4861102;29;20298;-51
2021/04/16 07:31:52;;;;;;;3.80;3.50;;;32.00;76.20;;;;;;4865117;29;20212;-55
2021/04/16 07:34:35;;;;;;;4.80;3.50;;;32.00;76.80;;;;;;4868457;29;20206;-55
2021/04/16 07:37:14;;;;;;;5.80;3.40;;;32.00;77.50;;;;;;4936312;29;20218;-50
2021/04/16 07:39:51;;;;;;;3.97;3.63;;;32.10;78.10;;;;;;4932067;29;20193;-51
2021/04/16 07:42:38;;;;;;;3.90;3.50;;;32.20;78.40;;;;;;4947547;29;20631;-52
2021/04/16 07:45:39;;;;;;;3.75;3.45;;;32.20;78.30;;;;;;4927085;29;20218;-52
2021/04/16 07:48:41;;;;;;;3.95;3.55;;;32.30;77.30;;;;;;4932007;29;20276;-50
2021/04/16 07:51:12;;;;;;;3.70;3.40;;;32.30;77.40;;;;;;4936603;29;20216;-53
2021/04/16 07:53:44;;;;;;;3.50;3.20;;;32.30;77.50;;;;;;4934739;29;20828;-51
2021/04/16 07:56:23;;;;;;;3.30;3.08;;;32.40;77.90;;;;;;4929845;28;20277;-50
2021/04/16 07:59:02;;;;;;;3.60;3.30;;;32.50;78.40;;;;;;4928209;29;20258;-51
2021/04/16 08:01:34;;;;;;;3.30;3.00;;;32.50;78.60;;;;;;4930115;29;20632;-53
2021/04/16 08:04:07;;;;;;;3.40;3.10;;;32.60;78.70;;;;;;4935216;29;20214;-53
2021/04/16 08:06:39;;;;;;;3.22;2.97;;;32.70;79.20;;;;;;4924742;29;20198;-53
2021/04/16 08:09:13;;;;;;;3.65;2.97;;;32.70;78.90;;;;;;4931292;29;20201;-52
2021/04/16 08:11:43;;;;;;;3.65;3.35;;;32.80;79.10;;;;;;4930817;29;20281;-51
2021/04/16 08:14:24;;;;;;;3.70;3.25;;;32.80;79.30;;;;;;4934534;29;20290;-53
2021/04/16 08:16:57;;;;;;;3.28;3.00;;;32.90;79.50;;;;;;4928424;29;20694;-54
2021/04/16 08:19:31;;;;;;;3.33;3.13;;;33.00;79.40;;;;;;4926730;29;20194;-52
2021/04/16 08:22:06;;;;;;;3.83;3.10;;;33.10;79.50;;;;;;4929398;29;20313;-49
2021/04/16 08:24:38;;;;;;;3.90;3.35;;;33.10;79.40;;;;;;4882689;29;20334;-53
2021/04/16 08:27:28;;;;;;;3.67;3.38;;;33.20;79.50;;;;;;4876868;29;20352;-55
2021/04/16 08:29:59;;;;;;;4.28;3.88;;;33.30;79.90;;;;;;4777500;30;20673;-55
2021/04/16 08:32:34;;;;;;;3.95;3.65;;;33.40;79.90;;;;;;4776315;30;20252;-55
2021/04/16 08:35:27;;;;;;;3.90;3.60;;;33.50;79.80;;;;;;4774693;30;20834;-54
2021/04/16 08:38:00;;;;;;;4.20;3.85;;;33.60;80.00;;;;;;4777233;30;20234;-54
2021/04/16 08:40:33;;;;;;;4.07;3.78;;;33.70;79.80;;;;;;4740816;30;20301;-53
2021/04/16 08:43:04;;;;;;;4.20;3.85;;;33.80;79.60;;;;;;4742611;30;20216;-53
2021/04/16 08:45:35;;;;;;;4.50;4.10;;;33.90;79.60;;;;;;4740187;30;20219;-56
2021/04/16 08:48:12;;;;;;;4.40;4.00;;;34.00;79.40;;;;;;4722347;30;20298;-54
2021/04/16 08:50:46;;;;;;;4.55;4.25;;;34.10;79.30;;;;;;4728963;30;20310;-54
2021/04/16 08:53:16;;;;;;;4.22;3.85;;;34.20;79.10;;;;;;4734977;30;20220;-55
2021/04/16 08:55:47;;;;;;;4.63;4.22;;;34.30;79.20;;;;;;4813662;29;20621;-55
2021/04/16 08:58:20;;;;;;;4.43;4.05;;;34.30;79.10;;;;;;4815446;29;20254;-54
2021/04/16 09:00:52;;;;;;;4.43;4.03;;;34.50;78.70;;;;;;4778883;29;20219;-50
2021/04/16 09:03:23;;;;;;;5.07;4.47;;;34.60;78.60;;;;;;4779621;29;20216;-53
2021/04/16 09:05:57;;;;;;;4.55;4.15;;;34.70;78.40;;;;;;4790255;29;20236;-51
2021/04/16 09:08:28;;;;;;;4.32;3.67;;;34.80;77.60;;;;;;4783118;29;20200;-55
2021/04/16 09:10:59;;;;;;;4.20;3.85;;;34.90;77.40;;;;;;4787059;29;20207;-51
2021/04/16 09:13:59;;;;;;;4.20;3.90;;;34.90;77.30;;;;;;4800021;29;20641;-50
2021/04/16 09:16:51;;;;;;;4.57;4.15;;;35.10;77.00;;;;;;4799385;29;20743;-55
2021/04/16 09:19:56;;;;;;;4.45;4.10;;;35.20;77.10;;;;;;4856114;29;20281;-56
2021/04/16 09:22:44;;;;;;;4.10;3.78;;;35.20;77.30;;;;;;4926430;29;20807;-49
2021/04/16 09:25:48;;;;;;;4.90;4.50;;;35.30;77.10;;;;;;4934495;29;20905;-51
2021/04/16 09:28:34;;;;;;;5.15;4.65;;;35.30;76.60;;;;;;4879600;29;20199;-50
2021/04/16 09:31:05;;;;;;;5.47;5.05;;;35.40;76.00;;;;;;4871004;29;20654;-53
2021/04/16 09:33:45;;;;;;;5.18;4.78;;;35.40;75.90;;;;;;4914908;29;20213;-52
2021/04/16 09:36:44;;;;;;;5.45;5.05;;;35.40;75.30;;;;;;4941929;29;20202;-50
2021/04/16 09:39:29;;;;;;;5.47;5.05;;;35.30;75.10;;;;;;4929665;29;20191;-49
2021/04/16 09:41:59;;;;;;;5.30;4.80;;;35.30;74.60;;;;;;4929023;29;20615;-54
2021/04/16 09:44:58;;;;;;;5.40;5.00;;;35.40;74.80;;;;;;4955430;29;20324;-51
2021/04/16 09:47:53;;;;;;;5.80;5.30;;;35.30;74.20;;;;;;4941451;29;20635;-55
2021/04/16 09:50:45;;;;;;;5.00;4.60;;;35.40;74.00;;;;;;4938316;29;20661;-54
2021/04/16 09:53:29;;;;;;;5.63;5.13;;;35.30;73.30;;;;;;4956287;29;20286;-50
2021/04/16 09:56:17;;;;;;;5.57;5.07;;;35.30;73.10;;;;;;4956188;29;20267;-50
2021/04/16 09:59:30;;;;;;;5.20;4.80;;;35.30;73.10;;;;;;4894828;29;20243;-54
2021/04/16 10:02:38;;;;;;;4.93;4.53;;;35.30;73.70;;;;;;4895876;29;20278;-51
2021/04/16 10:05:13;;;;;;;5.35;4.82;;;35.30;73.80;;;;;;4895953;29;20213;-51
2021/04/16 10:07:46;;;;;;;5.22;4.82;;;35.30;73.50;;;;;;4896059;29;20961;-50
2021/04/16 10:10:18;;;;;;;5.25;4.75;;;35.20;73.20;;;;;;4895935;29;20703;-52
2021/04/16 10:12:50;;;;;;;5.57;5.07;;;35.20;73.50;;;;;;4895312;29;20741;-51
2021/04/16 10:15:22;;;;;;;5.88;5.28;;;35.20;73.20;;;;;;4895789;29;20216;-51
2021/04/16 10:17:56;;;;;;;6.15;5.65;;;35.20;73.40;;;;;;4895258;29;20247;-50
2021/04/16 10:20:27;;;;;;;5.78;5.28;;;35.20;73.00;;;;;;4894844;29;20210;-53
2021/04/16 10:23:04;;;;;;;7.35;5.22;;;35.20;73.40;;;;;;4916069;29;20233;-54
2021/04/16 12:38:08;;;;;;;5.03;4.63;;;33.10;79.90;;;;;;4838880;29;20233;-53
2021/04/16 12:40:38;;;;;;;5.28;4.78;;;33.10;80.20;;;;;;4837322;29;20297;-55
2021/04/16 12:43:09;;;;;;;5.50;5.00;;;33.00;80.50;;;;;;4837747;29;20304;-54
2021/04/16 12:45:41;;;;;;;5.65;5.20;;;33.00;80.80;;;;;;4838240;29;20296;-52
2021/04/16 12:48:11;;;;;;;6.20;5.32;;;33.00;81.00;;;;;;4837261;29;20210;-52
2021/04/16 12:50:41;;;;;;;6.40;5.80;;;32.90;81.00;;;;;;4836388;29;20205;-53
2021/04/16 12:53:12;;;;;;;5.55;5.05;;;32.90;81.10;;;;;;4951978;29;20248;-55
2021/04/16 12:55:42;;;;;;;5.65;4.70;;;32.90;81.40;;;;;;4952443;29;20198;-54
2021/04/16 12:58:16;;;;;;;7.63;5.57;;;32.80;81.50;;;;;;4952802;29;20563;-49
2021/04/16 13:00:48;;;;;;;6.18;4.93;;;32.80;81.90;;;;;;4910858;29;20221;-51
2021/04/16 13:03:19;;;;;;;5.38;4.57;;;32.80;82.10;;;;;;4911160;29;20218;-51
2021/04/16 13:05:50;;;;;;;5.82;5.22;;;32.70;82.00;;;;;;4911387;29;20306;-53
2021/04/16 13:08:20;;;;;;;5.82;5.32;;;32.70;82.30;;;;;;4912100;29;20646;-51
2021/04/16 13:10:50;;;;;;;7.30;5.63;;;32.70;82.40;;;;;;4911093;29;20789;-55
2021/04/16 13:13:20;;;;;;;5.78;5.28;;;32.70;82.60;;;;;;4910587;29;20666;-54
2021/04/16 13:15:52;;;;;;;6.35;5.75;;;32.60;82.60;;;;;;4911137;29;20214;-53
2021/04/16 13:18:25;;;;;;;6.28;5.72;;;32.60;83.80;;;;;;4911600;29;20345;-54
2021/04/16 13:20:55;;;;;;;6.40;5.75;;;32.60;83.00;;;;;;4910843;29;20825;-53
2021/04/16 13:23:26;;;;;;;6.45;5.85;;;32.60;83.00;;;;;;4910089;29;20247;-51
2021/04/16 13:25:56;;;;;;;6.55;5.97;;;32.50;83.00;;;;;;4910305;29;20326;-51
2021/04/16 13:28:26;;;;;;;6.70;6.07;;;32.50;84.10;;;;;;4910858;29;20203;-50
2021/04/16 13:30:58;;;;;;;6.10;5.60;;;32.50;83.50;;;;;;4917136;29;20268;-52
2021/04/16 13:33:29;;;;;;;6.55;5.95;;;32.50;83.80;;;;;;4951855;29;20204;-51
2021/04/16 13:36:00;;;;;;;6.03;5.53;;;32.40;83.80;;;;;;4950731;29;20264;-54
2021/04/16 13:38:31;;;;;;;6.93;6.30;;;32.50;84.00;;;;;;4952345;29;20240;-53
2021/04/16 13:41:02;;;;;;;5.78;5.18;;;32.40;84.20;;;;;;4952357;29;20744;-61
2021/04/16 13:43:33;;;;;;;6.65;6.05;;;32.40;84.30;;;;;;4952144;29;20289;-51
2021/04/16 13:46:05;;;;;;;6.47;5.80;;;32.30;84.40;;;;;;4951869;29;20233;-54
2021/04/16 13:48:35;;;;;;;5.97;5.30;;;32.30;84.60;;;;;;4952111;29;20198;-50
2021/04/16 13:51:07;;;;;;;6.50;5.95;;;32.30;84.70;;;;;;4952434;29;20568;-53
2021/04/16 13:53:37;;;;;;;6.80;6.10;;;32.30;84.90;;;;;;4952453;28;20220;-54
2021/04/16 13:56:08;;;;;;;6.35;5.80;;;32.30;85.00;;;;;;4955106;29;20206;-53
2021/04/16 13:58:38;;;;;;;7.50;6.28;;;32.30;85.20;;;;;;4953601;29;20251;-52
2021/04/16 14:01:10;;;;;;;6.72;5.60;;;32.30;85.20;;;;;;4955298;29;20202;-54
2021/04/16 14:03:42;;;;;;;6.70;6.10;;;32.20;85.30;;;;;;4955378;29;20202;-51
2021/04/16 14:06:17;;;;;;;6.93;6.32;;;32.20;85.30;;;;;;4955640;29;20232;-51
2021/04/16 14:08:55;;;;;;;7.10;6.25;;;32.20;85.60;;;;;;4954424;29;20201;-51
2021/04/16 14:11:25;;;;;;;6.82;6.22;;;32.20;85.40;;;;;;4955366;29;20206;-53
2021/04/16 14:13:56;;;;;;;7.35;6.60;;;32.20;85.50;;;;;;4955327;29;20297;-54
2021/04/16 14:16:29;;;;;;;6.97;6.38;;;32.10;85.50;;;;;;4955449;29;20229;-54
2021/04/16 14:19:00;;;;;;;6.53;6.03;;;32.10;85.80;;;;;;4954097;29;20547;-50
2021/04/16 14:21:35;;;;;;;5.70;5.20;;;32.10;85.90;;;;;;4955352;29;20225;-49
2021/04/16 14:24:06;;;;;;;6.88;5.53;;;32.00;86.00;;;;;;4955013;29;20241;-50
2021/04/16 14:26:37;;;;;;;6.47;5.78;;;32.00;86.10;;;;;;4954615;29;20657;-55
2021/04/16 14:29:08;;;;;;;6.95;6.38;;;32.00;86.30;;;;;;4954251;29;20236;-54
2021/04/16 14:31:40;;;;;;;8.00;6.90;;;32.00;86.50;;;;;;4955304;29;20224;-50
2021/04/16 14:34:11;;;;;;;7.13;6.43;;;32.00;86.80;;;;;;4955132;29;20216;-54
2021/04/16 14:36:41;;;;;;;7.50;6.80;;;31.90;86.60;;;;;;4913862;29;20242;-51
2021/04/16 14:39:12;;;;;;;7.30;6.70;;;31.90;86.70;;;;;;4913394;29;20230;-54
2021/04/16 14:41:43;;;;;;;8.52;7.78;;;31.90;86.70;;;;;;4912661;29;20214;-52
2021/04/16 14:44:16;;;;;;;7.70;6.95;;;31.90;86.70;;;;;;4913749;29;20274;-54
2021/04/16 14:46:49;;;;;;;7.20;6.63;;;31.90;86.70;;;;;;4914004;29;20246;-52
2021/04/16 14:49:21;;;;;;;7.05;6.43;;;31.90;87.00;;;;;;4914465;29;20247;-54
2021/04/16 14:51:51;;;;;;;7.13;6.63;;;31.80;86.90;;;;;;4913223;29;20756;-51
2021/04/16 14:54:26;;;;;;;6.88;6.28;;;31.80;87.00;;;;;;4914259;29;20290;-50
2021/04/16 14:56:56;;;;;;;6.93;6.28;;;31.80;87.50;;;;;;4914129;29;20218;-53
2021/04/16 14:59:28;;;;;;;7.38;6.68;;;31.70;87.30;;;;;;4914506;29;20581;-50
2021/04/16 15:01:59;;;;;;;7.40;6.70;;;31.70;87.40;;;;;;4913032;29;20322;-53
2021/04/16 15:04:30;;;;;;;7.25;6.68;;;31.70;87.60;;;;;;4901290;29;20255;-54
2021/04/16 15:07:00;;;;;;;7.35;6.70;;;31.70;87.60;;;;;;4921936;29;20228;-55
2021/04/16 15:09:32;;;;;;;6.30;5.80;;;31.60;87.60;;;;;;4954963;29;20208;-53
2021/04/16 15:12:02;;;;;;;6.75;6.22;;;31.60;87.80;;;;;;4954727;29;20255;-52
2021/04/16 15:14:33;;;;;;;7.22;6.53;;;31.60;87.90;;;;;;4839979;29;20213;-49
2021/04/16 15:17:04;;;;;;;7.13;6.45;;;31.60;88.00;;;;;;4839349;29;20288;-51
2021/04/16 15:19:35;;;;;;;7.32;6.72;;;31.60;88.30;;;;;;4838767;29;20233;-52
2021/04/16 15:22:08;;;;;;;6.60;6.00;;;31.60;88.30;;;;;;4839146;29;20374;-50
2021/04/16 15:24:38;;;;;;;6.93;6.25;;;31.60;88.50;;;;;;4838690;29;20221;-53
2021/04/16 15:27:09;;;;;;;6.72;6.13;;;31.60;88.40;;;;;;4838785;29;20292;-51
2021/04/16 15:29:40;;;;;;;6.38;5.78;;;31.50;88.50;;;;;;4838352;29;20300;-50
2021/04/16 15:32:13;;;;;;;6.80;6.20;;;31.50;88.50;;;;;;4838382;29;20209;-54
2021/04/16 15:46:11;;;;;;;7.53;6.68;;;31.50;88.90;;;;;;4904264;29;20209;-50